Time;durP1;ratioP1;P1;durP2;ratioP2;P2;SDS_P1;SDS_P2;PMS_P1;PMS_P2;Temp;Humidity;BMP_temperature;BMP_pressure;BME280_temperature;BME280_humidity;BME280_pressure;Samples;Min_cycle;Max_cycle;Signal;HPM_P1;HPM_P2
2021/12/18 00:00:52;;;;;;;25.40;18.27;;;4.10;92.20;;;;;;5089258;28;20598;-82
2021/12/18 00:03:20;;;;;;;28.57;19.10;;;4.30;92.20;;;;;;5092584;28;20202;-84
2021/12/18 00:05:48;;;;;;;25.07;18.27;;;4.30;92.20;;;;;;5088508;28;20232;-83
2021/12/18 00:08:15;;;;;;;26.93;18.50;;;4.10;92.20;;;;;;5094474;28;20203;-82
2021/12/18 00:10:44;;;;;;;26.07;19.00;;;3.90;92.60;;;;;;5081881;28;20308;-87
2021/12/18 00:13:11;;;;;;;26.37;18.33;;;3.90;93.10;;;;;;5083226;28;20203;-84
2021/12/18 00:15:38;;;;;;;27.30;18.37;;;3.80;93.10;;;;;;5082618;28;20311;-83
2021/12/18 00:18:05;;;;;;;26.53;18.87;;;3.70;93.60;;;;;;5082665;28;20223;-83
2021/12/18 00:20:35;;;;;;;27.43;19.17;;;3.70;93.80;;;;;;5082905;28;20239;-82
2021/12/18 00:23:03;;;;;;;25.87;17.47;;;3.70;94.00;;;;;;5094718;28;20281;-84
2021/12/18 00:25:31;;;;;;;26.17;17.90;;;3.60;94.20;;;;;;5090263;28;20239;-83
2021/12/18 00:27:58;;;;;;;25.40;17.53;;;3.50;94.60;;;;;;5087253;28;20259;-83
2021/12/18 00:30:25;;;;;;;26.83;17.37;;;3.60;94.80;;;;;;5092089;28;20816;-83
2021/12/18 00:32:53;;;;;;;21.83;15.13;;;3.70;94.80;;;;;;5087021;28;20204;-82
2021/12/18 00:35:20;;;;;;;24.60;16.20;;;3.60;94.30;;;;;;5084768;28;20238;-84
2021/12/18 00:37:47;;;;;;;24.77;16.03;;;3.70;94.20;;;;;;5084222;28;20634;-83
2021/12/18 00:40:23;;;;;;;23.50;16.37;;;3.60;94.00;;;;;;5088134;28;20220;-82
2021/12/18 00:42:56;;;;;;;21.97;14.93;;;3.60;93.90;;;;;;5087589;28;20648;-82
2021/12/18 00:45:24;;;;;;;23.80;16.23;;;3.50;94.00;;;;;;5079017;28;20233;-82
2021/12/18 00:47:51;;;;;;;26.17;16.03;;;3.40;93.90;;;;;;5086690;28;20212;-85
2021/12/18 00:50:21;;;;;;;21.00;14.93;;;3.30;94.20;;;;;;5089534;28;20219;-82
2021/12/18 00:52:48;;;;;;;21.93;15.33;;;3.30;94.40;;;;;;5092278;28;20827;-83
2021/12/18 00:55:19;;;;;;;23.67;15.23;;;3.20;94.40;;;;;;5087278;28;20701;-82
2021/12/18 00:57:47;;;;;;;25.03;16.40;;;3.10;94.70;;;;;;5086084;28;20189;-82
2021/12/18 01:00:21;;;;;;;25.63;16.03;;;2.90;94.60;;;;;;5086803;28;20231;-83
2021/12/18 01:02:49;;;;;;;24.00;16.30;;;2.90;95.10;;;;;;5092323;28;20196;-82
2021/12/18 01:05:16;;;;;;;26.47;16.10;;;2.90;95.40;;;;;;5085794;28;20217;-83
2021/12/18 01:07:43;;;;;;;26.20;16.00;;;2.90;95.20;;;;;;5091081;28;20197;-84
2021/12/18 01:10:25;;;;;;;24.53;15.93;;;2.90;95.30;;;;;;5088542;28;20272;-82
2021/12/18 01:12:56;;;;;;;29.23;17.50;;;2.90;95.20;;;;;;5082746;28;20989;-82
2021/12/18 01:15:28;;;;;;;27.53;16.50;;;2.90;95.20;;;;;;5087316;28;20289;-83
2021/12/18 01:23:26;;;;;;;30.07;17.37;;;2.90;95.40;;;;;;5085109;28;20832;-82
2021/12/18 01:25:54;;;;;;;30.60;17.70;;;2.80;95.50;;;;;;5094529;28;20325;-82
2021/12/18 01:28:22;;;;;;;27.03;16.90;;;2.70;95.70;;;;;;5092724;28;20205;-82
2021/12/18 01:30:49;;;;;;;28.20;17.80;;;2.70;96.50;;;;;;5094406;28;20680;-83
2021/12/18 01:33:16;;;;;;;31.73;17.63;;;2.70;96.40;;;;;;5083717;28;20193;-87
2021/12/18 01:35:43;;;;;;;27.10;16.53;;;2.70;96.60;;;;;;5084309;28;20589;-83
2021/12/18 01:38:10;;;;;;;27.33;16.90;;;2.70;96.80;;;;;;5077595;28;20215;-82
2021/12/18 01:40:37;;;;;;;26.30;17.03;;;2.80;96.20;;;;;;5092996;28;20695;-83
2021/12/18 01:46:09;;;;;;;28.37;16.77;;;2.80;96.30;;;;;;5087355;28;20228;-83
2021/12/18 01:51:45;;;;;;;27.03;16.30;;;2.70;95.90;;;;;;5087083;28;20305;-82
2021/12/18 01:54:13;;;;;;;38.37;17.70;;;2.70;95.90;;;;;;5081060;28;20193;-80
2021/12/18 01:56:40;;;;;;;33.07;17.23;;;2.70;96.10;;;;;;5089275;28;20193;-81
2021/12/18 01:59:07;;;;;;;27.93;16.23;;;2.70;96.20;;;;;;5091188;28;20261;-81
2021/12/18 02:01:35;;;;;;;27.83;16.67;;;2.70;96.40;;;;;;5094610;28;20324;-82
2021/12/18 02:04:02;;;;;;;30.17;17.60;;;2.70;96.40;;;;;;5097348;28;20197;-83
2021/12/18 02:06:29;;;;;;;27.83;16.43;;;2.80;96.20;;;;;;5099791;28;20560;-81
2021/12/18 02:08:56;;;;;;;29.97;17.90;;;2.70;95.70;;;;;;5085981;28;20390;-81
2021/12/18 02:11:26;;;;;;;28.17;16.63;;;2.70;96.10;;;;;;5091334;28;20307;-81
2021/12/18 02:19:51;;;;;;;28.13;15.87;;;2.80;95.90;;;;;;5073857;28;20250;-81
2021/12/18 02:22:21;;;;;;;30.30;18.37;;;2.90;95.90;;;;;;5088336;28;20312;-82
2021/12/18 02:24:48;;;;;;;30.83;17.27;;;3.00;95.50;;;;;;5091859;28;20225;-83
2021/12/18 02:27:15;;;;;;;32.40;17.93;;;3.10;95.60;;;;;;5096546;28;20270;-81
2021/12/18 02:29:43;;;;;;;45.67;18.23;;;3.10;95.20;;;;;;5093817;28;20569;-81
2021/12/18 02:32:11;;;;;;;44.87;16.70;;;3.00;95.60;;;;;;5092509;28;20200;-81
2021/12/18 02:34:40;;;;;;;51.53;17.50;;;2.90;95.70;;;;;;5087330;28;20228;-84
2021/12/18 02:37:10;;;;;;;52.33;17.47;;;2.80;95.80;;;;;;5095261;28;20201;-83
2021/12/18 02:39:56;;;;;;;36.07;19.00;;;2.70;96.20;;;;;;5096318;28;20224;-81
2021/12/18 02:42:23;;;;;;;35.90;19.20;;;2.60;96.40;;;;;;5098476;28;20808;-81
2021/12/18 02:44:50;;;;;;;41.27;18.70;;;2.60;96.70;;;;;;5101655;28;20327;-81
2021/12/18 02:47:18;;;;;;;44.37;18.40;;;2.50;96.50;;;;;;5087454;28;20194;-83
2021/12/18 02:49:47;;;;;;;29.83;16.10;;;2.40;96.90;;;;;;5098346;28;20784;-81
2021/12/18 02:52:13;;;;;;;41.03;18.30;;;2.40;97.10;;;;;;5085838;28;20212;-83
2021/12/18 02:54:43;;;;;;;35.73;17.70;;;2.40;97.10;;;;;;5088220;28;20718;-83
2021/12/18 02:57:11;;;;;;;46.40;16.40;;;2.30;97.10;;;;;;5095132;28;20200;-83
2021/12/18 02:59:45;;;;;;;88.43;19.30;;;2.40;97.40;;;;;;5089989;28;20815;-82
2021/12/18 03:02:12;;;;;;;47.50;17.30;;;2.40;97.20;;;;;;5093929;28;20204;-82
2021/12/18 03:04:41;;;;;;;41.17;16.33;;;2.30;97.10;;;;;;5088519;28;20247;-81
2021/12/18 03:07:11;;;;;;;32.30;17.37;;;2.30;97.10;;;;;;5092631;28;20745;-85
2021/12/18 03:19:02;;;;;;;34.37;16.20;;;2.40;97.20;;;;;;5086515;28;20232;-80
2021/12/18 03:23:47;;;;;;;30.63;15.73;;;2.50;97.20;;;;;;5086879;28;20562;-82
2021/12/18 03:26:14;;;;;;;27.70;15.70;;;2.60;97.20;;;;;;5089405;28;20223;-82
2021/12/18 03:28:43;;;;;;;30.33;15.57;;;2.70;96.80;;;;;;5097959;28;20205;-81
2021/12/18 03:31:10;;;;;;;29.40;14.50;;;2.80;96.30;;;;;;5089384;28;20568;-82
2021/12/18 03:33:37;;;;;;;33.77;14.83;;;2.70;96.20;;;;;;5088403;28;20204;-81
2021/12/18 03:36:07;;;;;;;27.30;15.20;;;2.70;96.10;;;;;;5093931;28;20228;-83
2021/12/18 03:38:34;;;;;;;27.17;15.70;;;2.70;96.30;;;;;;5095108;28;20197;-81
2021/12/18 03:41:01;;;;;;;30.07;15.10;;;2.80;96.40;;;;;;5083703;28;20248;-81
2021/12/18 03:43:28;;;;;;;28.50;14.77;;;2.80;96.10;;;;;;5084801;28;20197;-82
2021/12/18 03:45:56;;;;;;;32.30;14.13;;;2.80;95.90;;;;;;5089130;28;20229;-81
2021/12/18 03:48:23;;;;;;;27.30;14.57;;;2.60;95.90;;;;;;5094272;28;20264;-80
2021/12/18 03:50:52;;;;;;;29.50;14.23;;;2.40;95.80;;;;;;5090303;28;20219;-80
2021/12/18 03:53:19;;;;;;;30.77;15.03;;;2.20;96.30;;;;;;5089576;28;20202;-81
2021/12/18 03:55:47;;;;;;;29.17;14.83;;;2.10;96.80;;;;;;5088329;28;20246;-82
2021/12/18 03:58:14;;;;;;;32.53;15.77;;;2.20;97.00;;;;;;5091811;28;20193;-81
2021/12/18 04:00:41;;;;;;;31.50;16.40;;;2.20;97.10;;;;;;5088860;28;20217;-81
2021/12/18 04:03:09;;;;;;;33.60;14.93;;;2.20;97.10;;;;;;5095358;28;20188;-82
2021/12/18 04:05:36;;;;;;;29.80;15.20;;;2.30;97.20;;;;;;5092127;28;20229;-81
2021/12/18 04:08:09;;;;;;;35.93;15.43;;;2.30;97.50;;;;;;5090482;28;20196;-81
2021/12/18 04:10:38;;;;;;;31.70;16.30;;;2.40;97.20;;;;;;5095974;28;20248;-81
2021/12/18 04:13:06;;;;;;;34.37;14.70;;;2.30;97.10;;;;;;5093845;28;20712;-84
2021/12/18 04:15:34;;;;;;;26.67;15.10;;;2.30;97.20;;;;;;5088136;28;20236;-82
2021/12/18 04:18:01;;;;;;;32.40;15.47;;;2.40;97.10;;;;;;5089886;28;20207;-81
2021/12/18 04:20:30;;;;;;;41.17;13.23;;;2.40;97.10;;;;;;5091304;28;20236;-81
2021/12/18 04:22:57;;;;;;;33.67;16.07;;;2.30;96.70;;;;;;5092785;28;20218;-81
2021/12/18 04:25:24;;;;;;;26.40;14.20;;;2.20;97.10;;;;;;5087914;28;20229;-81
2021/12/18 04:27:51;;;;;;;31.40;14.97;;;2.30;97.20;;;;;;5083990;28;20203;-83
2021/12/18 04:30:18;;;;;;;28.83;13.40;;;2.20;97.10;;;;;;5087408;28;20227;-82
2021/12/18 04:32:46;;;;;;;26.27;14.07;;;2.20;97.30;;;;;;5085800;28;20220;-82
2021/12/18 04:35:13;;;;;;;32.93;12.47;;;2.20;97.10;;;;;;5081744;28;20235;-81
2021/12/18 04:37:41;;;;;;;24.90;13.07;;;2.20;97.10;;;;;;5088674;28;20211;-81
2021/12/18 04:40:10;;;;;;;29.53;13.77;;;2.10;97.30;;;;;;5087874;28;20223;-83
2021/12/18 04:42:37;;;;;;;29.60;13.07;;;2.10;97.40;;;;;;5085023;28;20200;-81
2021/12/18 04:45:05;;;;;;;25.80;13.07;;;2.00;97.40;;;;;;5092053;28;20212;-81
2021/12/18 04:47:33;;;;;;;29.90;13.33;;;2.00;97.60;;;;;;5089281;28;20197;-81
2021/12/18 04:50:00;;;;;;;25.30;13.57;;;2.00;97.60;;;;;;5091234;28;20296;-81
2021/12/18 04:52:27;;;;;;;27.03;13.40;;;1.90;97.80;;;;;;5090348;28;20197;-83
2021/12/18 04:54:56;;;;;;;23.27;12.80;;;1.90;98.00;;;;;;5088472;28;20606;-82
2021/12/18 04:57:23;;;;;;;27.63;13.77;;;1.90;98.00;;;;;;5086762;28;20197;-84
2021/12/18 04:59:49;;;;;;;23.00;12.13;;;1.90;98.20;;;;;;5085397;28;20228;-82
2021/12/18 05:02:20;;;;;;;22.93;12.30;;;2.00;98.00;;;;;;5091880;28;20207;-81
2021/12/18 05:04:48;;;;;;;21.07;12.03;;;2.00;97.80;;;;;;5091379;28;20234;-82
2021/12/18 05:07:15;;;;;;;21.23;11.50;;;2.10;97.70;;;;;;5084559;28;20648;-81
2021/12/18 05:09:42;;;;;;;19.23;11.03;;;2.00;97.30;;;;;;5083488;28;20229;-83
2021/12/18 05:12:12;;;;;;;21.53;10.50;;;2.00;96.90;;;;;;5083916;28;20188;-82
2021/12/18 05:14:39;;;;;;;21.40;11.87;;;2.10;97.10;;;;;;5084373;28;20224;-82
2021/12/18 05:17:06;;;;;;;24.87;12.50;;;2.10;97.10;;;;;;5082772;28;20222;-82
2021/12/18 05:19:32;;;;;;;24.37;12.67;;;2.00;97.10;;;;;;5091461;28;20241;-81
2021/12/18 05:21:59;;;;;;;22.10;11.90;;;2.10;97.60;;;;;;5091759;28;20205;-82
2021/12/18 05:24:26;;;;;;;21.47;11.77;;;2.20;97.70;;;;;;5090266;28;20200;-81
2021/12/18 05:26:53;;;;;;;18.00;10.90;;;2.20;97.40;;;;;;5098504;28;20227;-81
2021/12/18 05:29:22;;;;;;;17.40;10.60;;;2.20;97.30;;;;;;5091050;28;20199;-82
2021/12/18 05:31:49;;;;;;;18.57;9.70;;;2.10;96.90;;;;;;5087430;28;20204;-83
2021/12/18 05:34:21;;;;;;;18.43;10.27;;;2.00;97.00;;;;;;5078580;28;20197;-81
2021/12/18 05:37:14;;;;;;;14.00;8.50;;;1.80;97.00;;;;;;5088270;28;20197;-81
2021/12/18 05:39:41;;;;;;;13.87;8.23;;;1.90;97.10;;;;;;5088559;28;20603;-81
2021/12/18 05:42:09;;;;;;;16.67;9.50;;;2.00;96.80;;;;;;5091731;28;20198;-84
2021/12/18 05:44:37;;;;;;;12.57;7.67;;;2.00;96.50;;;;;;5089578;28;20228;-81
2021/12/18 05:47:04;;;;;;;13.67;8.30;;;2.00;96.60;;;;;;5085230;28;20225;-81
2021/12/18 05:49:31;;;;;;;13.50;8.60;;;1.90;96.30;;;;;;5089835;28;20602;-81
2021/12/18 05:51:58;;;;;;;13.77;8.27;;;1.90;96.50;;;;;;5089991;28;20200;-80
2021/12/18 05:54:25;;;;;;;14.93;9.67;;;2.10;96.60;;;;;;5079137;28;20289;-81
2021/12/18 05:56:52;;;;;;;13.90;8.57;;;2.30;96.30;;;;;;5088539;28;20205;-80
2021/12/18 05:59:19;;;;;;;18.13;9.33;;;2.40;95.90;;;;;;5080377;28;20198;-80
2021/12/18 06:01:47;;;;;;;16.97;8.63;;;2.40;95.70;;;;;;5087160;28;20199;-81
2021/12/18 06:04:14;;;;;;;16.87;9.33;;;2.30;96.10;;;;;;5092903;28;20189;-81
2021/12/18 06:06:41;;;;;;;13.73;9.13;;;2.20;96.00;;;;;;5088996;28;20239;-80
2021/12/18 06:09:10;;;;;;;17.90;9.20;;;2.10;96.20;;;;;;5080285;28;20212;-80
2021/12/18 06:11:38;;;;;;;13.00;8.10;;;2.20;96.20;;;;;;5093302;28;20297;-80
2021/12/18 06:14:06;;;;;;;12.67;8.13;;;2.20;96.20;;;;;;5092786;28;20203;-80
2021/12/18 06:16:33;;;;;;;14.70;7.93;;;2.20;95.80;;;;;;5096306;28;20262;-81
2021/12/18 06:19:01;;;;;;;11.80;7.53;;;2.10;96.00;;;;;;5087002;28;20200;-81
2021/12/18 06:21:29;;;;;;;11.63;7.73;;;2.00;96.10;;;;;;5091459;28;20220;-80
2021/12/18 06:23:56;;;;;;;16.60;8.93;;;2.00;95.90;;;;;;5090688;28;20530;-81
2021/12/18 06:26:27;;;;;;;15.30;8.80;;;2.00;96.30;;;;;;5093369;28;20285;-80
2021/12/18 06:28:54;;;;;;;13.63;8.50;;;2.00;96.20;;;;;;5091517;28;20671;-81
2021/12/18 06:31:21;;;;;;;10.90;7.30;;;2.00;95.90;;;;;;5092801;28;20569;-81
2021/12/18 06:33:55;;;;;;;13.37;8.00;;;2.00;96.20;;;;;;5095332;28;20280;-80
2021/12/18 06:36:23;;;;;;;12.17;7.90;;;2.00;95.80;;;;;;5090176;28;20220;-80
2021/12/18 06:38:50;;;;;;;12.40;8.07;;;2.00;96.10;;;;;;5090749;28;20196;-80
2021/12/18 06:41:17;;;;;;;12.37;8.10;;;2.20;95.90;;;;;;5085306;28;20299;-81
2021/12/18 06:43:44;;;;;;;13.43;8.40;;;2.10;95.70;;;;;;5095149;28;20213;-81
2021/12/18 06:46:11;;;;;;;13.83;8.73;;;2.10;96.10;;;;;;5095413;28;20291;-81
2021/12/18 06:48:37;;;;;;;13.90;8.60;;;2.00;96.40;;;;;;5093424;28;20296;-81
2021/12/18 06:51:06;;;;;;;15.90;9.33;;;2.00;96.60;;;;;;5086974;28;20224;-81
2021/12/18 06:53:34;;;;;;;13.70;8.83;;;2.10;96.50;;;;;;5093913;28;20625;-81
2021/12/18 06:56:03;;;;;;;12.00;7.50;;;2.10;96.60;;;;;;5094527;28;20311;-83
2021/12/18 06:58:41;;;;;;;11.83;7.70;;;2.10;96.30;;;;;;5078383;28;20212;-81
2021/12/18 07:01:08;;;;;;;14.30;8.17;;;1.90;95.80;;;;;;5082241;28;20699;-80
2021/12/18 07:03:35;;;;;;;13.03;8.30;;;1.80;96.30;;;;;;5083981;28;20685;-80
2021/12/18 07:06:02;;;;;;;11.97;7.63;;;1.80;96.70;;;;;;5089636;28;20542;-80
2021/12/18 07:08:29;;;;;;;12.70;7.47;;;1.70;96.80;;;;;;5087621;28;20194;-79
2021/12/18 07:10:57;;;;;;;13.83;8.27;;;1.80;96.80;;;;;;5092241;28;20227;-80
2021/12/18 07:13:24;;;;;;;13.60;8.43;;;1.90;96.80;;;;;;5085199;28;20284;-80
2021/12/18 07:15:52;;;;;;;12.60;8.23;;;2.00;96.80;;;;;;5096117;28;20722;-81
2021/12/18 07:18:19;;;;;;;13.17;8.97;;;2.00;96.80;;;;;;5085158;28;20220;-81
2021/12/18 07:20:45;;;;;;;14.17;8.77;;;2.20;96.50;;;;;;5093924;28;20706;-81
2021/12/18 07:23:12;;;;;;;15.53;8.10;;;2.40;96.00;;;;;;5085048;28;20204;-81
2021/12/18 07:25:39;;;;;;;14.23;8.13;;;2.40;95.60;;;;;;5094550;28;20226;-81
2021/12/18 07:28:07;;;;;;;13.83;8.97;;;2.50;95.50;;;;;;5092106;28;20215;-81
2021/12/18 07:30:34;;;;;;;16.40;9.33;;;2.50;95.50;;;;;;5082707;28;20236;-81
2021/12/18 07:33:01;;;;;;;16.37;9.90;;;2.40;95.30;;;;;;5078732;28;20217;-82
2021/12/18 07:35:28;;;;;;;16.43;9.90;;;2.40;95.80;;;;;;5089344;28;20255;-82
2021/12/18 07:37:56;;;;;;;15.33;9.47;;;2.30;95.90;;;;;;5086317;28;20292;-82
2021/12/18 07:40:23;;;;;;;14.70;9.13;;;2.30;96.20;;;;;;5086818;28;20219;-84
2021/12/18 07:42:50;;;;;;;18.10;10.33;;;2.20;96.30;;;;;;5091697;28;20296;-84
2021/12/18 07:45:18;;;;;;;14.37;9.43;;;2.30;96.50;;;;;;5091252;28;20295;-81
2021/12/18 07:47:45;;;;;;;16.63;9.60;;;2.30;95.90;;;;;;5088821;28;20224;-83
2021/12/18 07:50:18;;;;;;;17.37;10.57;;;2.40;96.00;;;;;;5088753;28;20231;-82
2021/12/18 07:52:45;;;;;;;15.90;10.03;;;2.40;95.90;;;;;;5084689;28;20561;-80
2021/12/18 07:55:13;;;;;;;19.83;10.73;;;2.50;95.50;;;;;;5075366;28;20224;-82
2021/12/18 07:57:40;;;;;;;18.27;10.90;;;2.50;95.20;;;;;;5090807;28;20291;-81
2021/12/18 08:00:10;;;;;;;20.03;11.13;;;2.40;95.30;;;;;;5084234;28;20224;-82
2021/12/18 08:02:42;;;;;;;19.73;11.67;;;2.30;96.00;;;;;;5087552;28;20287;-81
2021/12/18 08:05:10;;;;;;;19.70;11.67;;;2.50;96.20;;;;;;5090830;28;20235;-82
2021/12/18 08:07:36;;;;;;;20.70;12.20;;;2.60;96.00;;;;;;5087851;28;20229;-83
2021/12/18 08:10:05;;;;;;;22.67;12.57;;;2.60;95.50;;;;;;5090818;28;20816;-82
2021/12/18 08:12:31;;;;;;;20.37;11.93;;;2.40;95.60;;;;;;5087986;28;21090;-82
2021/12/18 08:14:58;;;;;;;23.13;12.83;;;2.40;96.00;;;;;;5084755;28;20221;-81
2021/12/18 08:17:26;;;;;;;21.77;12.83;;;2.40;95.60;;;;;;5095586;28;21063;-83
2021/12/18 08:19:54;;;;;;;23.20;12.83;;;2.20;96.00;;;;;;5085929;28;20227;-83
2021/12/18 08:22:21;;;;;;;22.17;13.00;;;2.20;96.30;;;;;;5080946;28;20209;-84
2021/12/18 08:24:48;;;;;;;23.27;12.87;;;2.20;96.30;;;;;;5089155;28;20229;-81
2021/12/18 08:27:15;;;;;;;22.27;13.53;;;2.40;96.30;;;;;;5085146;28;20224;-86
2021/12/18 08:29:42;;;;;;;22.70;13.13;;;2.40;96.20;;;;;;5089071;28;20702;-83
2021/12/18 08:32:10;;;;;;;23.60;13.53;;;2.40;96.10;;;;;;5086753;28;20205;-89
2021/12/18 08:34:37;;;;;;;25.73;14.43;;;2.50;96.40;;;;;;5077039;28;20239;-89
2021/12/18 08:37:09;;;;;;;25.00;14.03;;;2.70;95.90;;;;;;5085865;28;20204;-90
2021/12/18 08:39:36;;;;;;;23.57;13.73;;;2.90;95.30;;;;;;5083166;28;20224;-90
2021/12/18 08:42:06;;;;;;;21.07;12.70;;;3.10;94.80;;;;;;5075868;28;20290;-84
2021/12/18 08:44:33;;;;;;;22.83;13.10;;;2.90;94.60;;;;;;5079407;28;20604;-88
2021/12/18 08:47:08;;;;;;;22.70;13.13;;;2.80;94.60;;;;;;5084656;28;20232;-85
2021/12/18 08:49:35;;;;;;;24.47;14.17;;;2.80;95.00;;;;;;5088017;28;20710;-89
2021/12/18 08:52:02;;;;;;;24.47;13.43;;;2.90;95.10;;;;;;5084096;28;20223;-91
2021/12/18 08:54:31;;;;;;;20.47;12.10;;;2.80;94.60;;;;;;5083447;28;20196;-86
2021/12/18 08:57:10;;;;;;;20.97;13.03;;;2.80;94.60;;;;;;5081168;28;20201;-88
2021/12/18 08:59:37;;;;;;;19.80;11.83;;;2.80;94.60;;;;;;5083177;28;20232;-86
2021/12/18 09:02:05;;;;;;;22.37;12.90;;;2.80;94.60;;;;;;5089609;28;20193;-86
2021/12/18 09:04:32;;;;;;;21.80;12.90;;;2.80;94.40;;;;;;5086775;28;20630;-88
2021/12/18 09:06:59;;;;;;;21.53;11.97;;;2.90;94.60;;;;;;5065728;28;20228;-86
2021/12/18 09:09:26;;;;;;;18.20;11.63;;;2.70;94.60;;;;;;5063081;28;20479;-87
2021/12/18 09:11:55;;;;;;;21.80;11.97;;;2.50;94.50;;;;;;5080130;28;20205;-88
2021/12/18 09:14:22;;;;;;;22.07;12.67;;;2.50;95.00;;;;;;5064445;28;20660;-88
2021/12/18 09:16:50;;;;;;;22.17;12.83;;;2.60;95.40;;;;;;5081325;28;20230;-87
2021/12/18 09:19:21;;;;;;;22.93;13.57;;;2.80;95.10;;;;;;5085939;28;20660;-88
2021/12/18 09:21:48;;;;;;;21.97;12.70;;;2.90;94.60;;;;;;5053479;28;20251;-90
2021/12/18 09:24:36;;;;;;;21.67;13.30;;;2.80;94.40;;;;;;5066052;28;20207;-89
2021/12/18 09:27:06;;;;;;;24.63;13.70;;;2.70;94.60;;;;;;5087710;28;20208;-88
2021/12/18 09:29:33;;;;;;;22.43;13.10;;;2.70;94.60;;;;;;5064382;28;20645;-88
2021/12/18 09:32:01;;;;;;;22.80;12.57;;;2.60;94.90;;;;;;5086162;28;20542;-88
2021/12/18 09:34:30;;;;;;;23.60;12.57;;;2.60;95.00;;;;;;5080727;28;20200;-84
2021/12/18 09:36:57;;;;;;;19.77;11.97;;;2.70;95.10;;;;;;5089407;28;20237;-87
2021/12/18 09:39:25;;;;;;;22.27;12.87;;;2.70;94.60;;;;;;5082698;28;20203;-87
2021/12/18 09:41:53;;;;;;;22.90;13.50;;;2.90;94.60;;;;;;5083390;28;20205;-90
2021/12/18 09:44:28;;;;;;;24.20;13.67;;;3.10;94.20;;;;;;5064695;28;20200;-88
2021/12/18 09:46:57;;;;;;;21.27;12.37;;;3.10;93.50;;;;;;5068109;28;20224;-89
2021/12/18 09:49:25;;;;;;;21.97;13.10;;;3.00;93.80;;;;;;5072556;28;20196;-86
2021/12/18 09:52:01;;;;;;;26.43;14.50;;;3.10;94.00;;;;;;5083862;28;20204;-89
2021/12/18 09:57:53;;;;;;;22.90;12.97;;;3.00;93.70;;;;;;5095356;28;20230;-90
2021/12/18 10:00:24;;;;;;;23.50;13.17;;;3.30;93.60;;;;;;5073740;28;20220;-91
2021/12/18 10:02:51;;;;;;;21.73;12.70;;;3.50;93.40;;;;;;5082120;28;20201;-90
2021/12/18 10:05:24;;;;;;;21.27;13.03;;;3.40;93.10;;;;;;5066068;28;20223;-90
2021/12/18 10:08:22;;;;;;;20.33;12.00;;;3.40;92.80;;;;;;5062907;28;20220;-88
2021/12/18 10:11:02;;;;;;;22.30;13.17;;;3.30;92.20;;;;;;5020168;28;20230;-89
2021/12/18 10:13:31;;;;;;;21.03;12.70;;;3.50;92.50;;;;;;5080921;28;20208;-89
2021/12/18 10:16:11;;;;;;;21.17;12.00;;;3.40;92.30;;;;;;5087927;28;20227;-88
2021/12/18 10:21:58;;;;;;;22.33;12.23;;;3.50;92.20;;;;;;5071652;27;20561;-91
2021/12/18 10:24:27;;;;;;;20.93;12.60;;;3.00;92.80;;;;;;5039936;27;20237;-91
2021/12/18 10:26:55;;;;;;;20.10;12.17;;;3.10;93.30;;;;;;5078475;28;20204;-91
2021/12/18 10:29:29;;;;;;;19.43;11.87;;;3.00;93.30;;;;;;5083703;28;20644;-89
2021/12/18 10:32:03;;;;;;;23.53;12.40;;;3.30;92.80;;;;;;5086255;28;20197;-89
2021/12/18 10:34:30;;;;;;;19.90;12.30;;;3.40;92.40;;;;;;5077744;28;20200;-88
2021/12/18 10:37:17;;;;;;;20.13;12.27;;;3.50;91.50;;;;;;5097038;28;20209;-89
2021/12/18 10:39:56;;;;;;;18.70;11.43;;;3.60;91.80;;;;;;5090267;27;20253;-88
2021/12/18 10:42:27;;;;;;;19.47;11.53;;;3.70;91.20;;;;;;5112745;28;20559;-89
2021/12/18 10:45:04;;;;;;;18.60;10.93;;;3.80;91.00;;;;;;5114541;27;20305;-90
2021/12/18 10:47:56;;;;;;;19.53;11.67;;;3.90;90.80;;;;;;5110372;28;20203;-89
2021/12/18 10:50:49;;;;;;;17.70;11.37;;;4.00;90.60;;;;;;5106046;28;20220;-88
2021/12/18 10:53:23;;;;;;;18.57;11.20;;;3.70;90.80;;;;;;5104526;28;20214;-89
2021/12/18 10:55:52;;;;;;;19.87;11.70;;;3.80;90.90;;;;;;5091662;28;20238;-90
2021/12/18 10:58:21;;;;;;;18.47;10.97;;;3.90;90.80;;;;;;5098018;28;20220;-89
2021/12/18 11:00:59;;;;;;;21.40;11.50;;;3.80;90.70;;;;;;5114363;27;20678;-89
2021/12/18 11:03:29;;;;;;;17.67;11.17;;;3.70;90.60;;;;;;5110340;28;20206;-87
2021/12/18 11:06:09;;;;;;;19.70;11.93;;;3.70;90.20;;;;;;5111768;28;20224;-88
2021/12/18 11:08:55;;;;;;;19.40;11.00;;;3.70;90.30;;;;;;5108237;28;20207;-90
2021/12/18 11:14:11;;;;;;;21.10;12.33;;;3.40;91.10;;;;;;5100238;28;20662;-88
2021/12/18 11:16:40;;;;;;;19.97;11.63;;;3.50;91.30;;;;;;5095315;28;20233;-88
2021/12/18 11:19:11;;;;;;;18.13;11.20;;;3.50;91.30;;;;;;5103479;28;20192;-89
2021/12/18 11:21:39;;;;;;;22.30;12.00;;;3.50;90.90;;;;;;5108150;28;20224;-89
2021/12/18 11:24:09;;;;;;;20.27;11.70;;;3.50;91.50;;;;;;5105803;28;20296;-90
2021/12/18 11:26:41;;;;;;;23.07;12.67;;;3.70;91.40;;;;;;5102292;28;20227;-91
2021/12/18 11:29:14;;;;;;;20.17;11.73;;;3.60;90.90;;;;;;5105390;28;20705;-90
2021/12/18 11:31:43;;;;;;;20.90;11.93;;;3.80;91.30;;;;;;5099434;28;20286;-89
2021/12/18 11:34:10;;;;;;;20.30;11.67;;;3.80;90.90;;;;;;5089068;28;20242;-90
2021/12/18 11:36:41;;;;;;;21.93;12.47;;;3.90;91.10;;;;;;5093395;28;20243;-90
2021/12/18 11:39:12;;;;;;;21.73;12.47;;;3.80;91.00;;;;;;5086569;28;20617;-89
2021/12/18 11:41:40;;;;;;;20.67;11.93;;;3.90;90.90;;;;;;5088684;28;20225;-90
2021/12/18 11:44:26;;;;;;;21.43;12.07;;;3.80;91.10;;;;;;5081672;28;20203;-89
2021/12/18 11:50:22;;;;;;;24.40;13.80;;;3.70;91.50;;;;;;5087996;28;20221;-90
2021/12/18 11:53:01;;;;;;;23.47;13.03;;;3.50;91.70;;;;;;5094547;28;20201;-89
2021/12/18 11:55:32;;;;;;;22.23;13.23;;;3.30;92.80;;;;;;5090515;28;20216;-90
2021/12/18 11:58:00;;;;;;;22.13;13.17;;;3.40;92.30;;;;;;5093280;28;20744;-89
2021/12/18 12:00:50;;;;;;;23.30;13.27;;;3.60;92.10;;;;;;5085402;28;20332;-90
2021/12/18 12:03:31;;;;;;;21.80;12.70;;;3.70;91.80;;;;;;5085771;28;20224;-90
2021/12/18 12:06:00;;;;;;;20.40;12.57;;;3.50;92.00;;;;;;5094491;28;20212;-90
2021/12/18 12:08:37;;;;;;;22.87;13.20;;;3.70;92.20;;;;;;5079838;28;20532;-89
2021/12/18 12:11:18;;;;;;;22.77;12.40;;;3.60;91.90;;;;;;5096720;28;20564;-87
2021/12/18 12:14:08;;;;;;;22.57;12.33;;;3.50;91.80;;;;;;5094568;28;20675;-90
2021/12/18 12:17:05;;;;;;;24.47;13.53;;;3.40;92.00;;;;;;5087634;28;20252;-89
2021/12/18 12:19:54;;;;;;;24.17;12.43;;;3.30;92.50;;;;;;5084342;28;20261;-89
2021/12/18 12:22:48;;;;;;;23.67;13.97;;;3.30;92.60;;;;;;5096353;28;20400;-88
2021/12/18 12:25:19;;;;;;;22.50;12.80;;;3.10;92.90;;;;;;5097052;28;20224;-88
2021/12/18 12:28:01;;;;;;;23.20;13.27;;;3.10;93.00;;;;;;5082924;28;20203;-89
2021/12/18 12:30:43;;;;;;;23.07;13.17;;;3.20;93.00;;;;;;5076042;28;20552;-92
2021/12/18 12:33:12;;;;;;;23.73;13.97;;;3.20;93.40;;;;;;5077959;28;20231;-90
2021/12/18 12:36:30;;;;;;;21.43;12.83;;;3.40;92.30;;;;;;5101874;28;20222;-90
2021/12/18 12:39:00;;;;;;;22.63;12.90;;;3.30;92.90;;;;;;5086090;28;21058;-90
2021/12/18 12:51:58;;;;;;;23.07;12.30;;;3.80;91.70;;;;;;5013934;28;20258;-92
2021/12/18 12:54:54;;;;;;;23.60;12.53;;;3.80;91.90;;;;;;5014336;28;20192;-93
2021/12/18 13:09:49;;;;;;;25.23;13.27;;;3.30;92.50;;;;;;5103545;28;20222;-92
2021/12/18 13:18:15;;;;;;;25.30;13.17;;;3.10;92.90;;;;;;5052700;28;20229;-89
2021/12/18 13:20:46;;;;;;;23.40;12.40;;;3.00;92.90;;;;;;5053114;28;20336;-90
2021/12/18 13:23:24;;;;;;;22.17;12.67;;;2.90;93.20;;;;;;5055660;28;20206;-91
2021/12/18 13:25:54;;;;;;;23.87;13.13;;;2.90;93.70;;;;;;5046159;28;20228;-91
2021/12/18 13:28:23;;;;;;;22.37;13.43;;;3.00;93.10;;;;;;5049326;28;20197;-92
2021/12/18 13:31:11;;;;;;;23.67;13.13;;;3.00;93.40;;;;;;5047029;28;20332;-91
2021/12/18 13:33:40;;;;;;;29.87;14.10;;;3.20;93.60;;;;;;5059265;28;20257;-92
2021/12/18 13:37:03;;;;;;;23.43;13.20;;;3.20;93.70;;;;;;5058488;28;20268;-91
2021/12/18 13:42:17;;;;;;;21.73;12.40;;;3.80;91.90;;;;;;4996740;28;20221;-92
2021/12/18 13:45:37;;;;;;;28.10;15.77;;;4.20;91.00;;;;;;4973201;28;20224;-92
2021/12/18 13:51:46;;;;;;;25.53;13.20;;;4.20;91.00;;;;;;4945306;28;20205;-91
2021/12/18 13:57:07;;;;;;;27.27;16.40;;;3.70;90.90;;;;;;4973219;28;20307;-92
2021/12/18 14:05:59;;;;;;;22.50;13.63;;;3.40;91.90;;;;;;5011245;28;20705;-92
2021/12/18 14:09:22;;;;;;;22.83;12.97;;;3.40;92.00;;;;;;5048709;28;20217;-92
2021/12/18 14:37:51;;;;;;;21.83;13.20;;;3.10;92.20;;;;;;5039169;28;20236;-89
2021/12/18 14:40:20;;;;;;;20.70;13.40;;;3.00;92.20;;;;;;5053326;28;20218;-90
2021/12/18 14:43:44;;;;;;;19.97;12.70;;;3.00;92.40;;;;;;5052818;28;20554;-91
2021/12/18 14:46:21;;;;;;;23.80;14.37;;;2.90;92.10;;;;;;5052325;28;20239;-90
2021/12/18 14:48:50;;;;;;;21.73;13.57;;;2.90;93.30;;;;;;5053014;28;20201;-90